createdAt,value
2018-11-13T00:00:39.144Z,59.60
2018-11-13T00:03:07.007Z,59.60
2018-11-13T00:05:34.832Z,59.70
2018-11-13T00:08:02.683Z,59.70
2018-11-13T00:10:30.500Z,59.70
2018-11-13T00:12:58.328Z,59.60
2018-11-13T00:15:26.115Z,59.60
2018-11-13T00:17:53.902Z,59.60
2018-11-13T00:20:22.583Z,59.70
2018-11-13T00:22:50.420Z,59.80
2018-11-13T00:25:19.264Z,59.70
2018-11-13T00:27:47.091Z,59.60
2018-11-13T00:30:18.953Z,59.70
2018-11-13T00:32:46.820Z,59.70
2018-11-13T00:35:16.097Z,60.40
2018-11-13T00:37:44.829Z,59.70
2018-11-13T00:40:14.328Z,59.70
2018-11-13T00:42:44.061Z,59.70
2018-11-13T00:45:11.896Z,59.70
2018-11-13T00:47:39.692Z,59.50
2018-11-13T00:50:10.212Z,59.10
2018-11-13T00:52:38.079Z,59.60
2018-11-13T00:55:06.034Z,59.50
2018-11-13T00:57:33.911Z,59.60
2018-11-13T01:00:01.737Z,59.50
2018-11-13T01:02:29.558Z,59.60
2018-11-13T01:04:57.434Z,59.40
2018-11-13T01:07:25.285Z,59.50
2018-11-13T01:09:54.158Z,59.40
2018-11-13T01:12:22.909Z,59.60
2018-11-13T01:14:50.763Z,59.40
2018-11-13T01:17:18.637Z,59.40
2018-11-13T01:19:47.506Z,59.30
2018-11-13T01:22:16.506Z,59.30
2018-11-13T01:24:45.052Z,59.40
2018-11-13T01:27:13.651Z,59.40
2018-11-13T01:29:45.828Z,59.60
2018-11-13T01:32:14.590Z,59.50
2018-11-13T01:34:43.519Z,59.30
2018-11-13T01:37:11.390Z,59.50
2018-11-13T01:39:40.269Z,59.40
2018-11-13T01:42:08.117Z,59.30
2018-11-13T01:44:35.945Z,59.40
2018-11-13T01:47:03.779Z,59.30
2018-11-13T01:49:32.659Z,59.30
2018-11-13T01:52:01.378Z,59.40
2018-11-13T01:54:30.373Z,59.50
2018-11-13T01:56:59.022Z,59.40
2018-11-13T01:59:26.910Z,59.30
2018-11-13T02:01:55.648Z,59.40
2018-11-13T02:04:23.482Z,58.90
2018-11-13T02:06:52.318Z,59.70
2018-11-13T02:09:21.153Z,59.60
2018-11-13T02:11:49.882Z,59.50
2018-11-13T02:14:18.598Z,59.30
2018-11-13T02:16:47.325Z,59.70
2018-11-13T02:19:15.279Z,59.20
2018-11-13T02:21:43.730Z,59.00
2018-11-13T02:24:11.646Z,59.00
2018-11-13T02:26:39.473Z,59.00
2018-11-13T02:29:07.400Z,59.10
2018-11-13T02:31:35.261Z,59.30
2018-11-13T02:34:03.510Z,59.30
2018-11-13T02:36:31.555Z,59.40
2018-11-13T02:39:00.431Z,59.70
2018-11-13T02:41:29.190Z,59.60
2018-11-13T02:43:57.908Z,59.60
2018-11-13T02:46:26.819Z,59.50
2018-11-13T02:48:56.318Z,59.50
2018-11-13T02:51:24.176Z,59.50
2018-11-13T02:53:53.043Z,59.40
2018-11-13T02:56:21.759Z,59.40
2018-11-13T02:58:50.497Z,59.40
2018-11-13T03:01:19.219Z,59.60
2018-11-13T03:03:48.073Z,59.60
2018-11-13T03:06:15.917Z,59.50
2018-11-13T03:08:45.416Z,59.30
2018-11-13T03:11:14.553Z,59.60
2018-11-13T03:13:43.492Z,59.50
2018-11-13T03:16:12.232Z,59.50
2018-11-13T03:18:40.174Z,59.40
2018-11-13T03:21:08.921Z,59.40
2018-11-13T03:23:36.764Z,59.40
2018-11-13T03:26:05.927Z,59.70
2018-11-13T03:28:34.903Z,59.60
2018-11-13T03:31:02.872Z,59.40
2018-11-13T03:33:31.554Z,59.40
2018-11-13T03:36:00.289Z,59.50
2018-11-13T03:38:29.055Z,59.50
2018-11-13T03:40:57.884Z,59.60
2018-11-13T03:43:26.658Z,59.50
2018-11-13T03:45:55.505Z,59.50
2018-11-13T03:48:24.247Z,59.40
2018-11-13T03:50:52.943Z,59.40
2018-11-13T03:53:21.711Z,59.40
2018-11-13T03:55:49.534Z,59.40
2018-11-13T03:58:18.412Z,59.20
2018-11-13T04:00:47.120Z,59.60
2018-11-13T04:03:15.865Z,59.30
2018-11-13T04:05:45.683Z,59.50
2018-11-13T04:08:15.734Z,59.40
2018-11-13T04:10:44.328Z,59.30
2018-11-13T04:13:12.230Z,59.50
2018-11-13T04:15:40.656Z,59.50
2018-11-13T04:18:08.480Z,59.50
2018-11-13T04:20:36.384Z,59.10
2018-11-13T04:23:04.211Z,59.10
2018-11-13T04:25:32.095Z,59.20
2018-11-13T04:27:59.916Z,59.40
2018-11-13T04:30:27.758Z,59.50
2018-11-13T04:32:55.628Z,59.40
2018-11-13T04:35:23.458Z,59.30
2018-11-13T04:37:51.281Z,59.30
2018-11-13T04:40:20.904Z,59.40
2018-11-13T04:42:50.115Z,59.50
2018-11-13T04:45:18.929Z,59.40
2018-11-13T04:47:47.629Z,59.40
2018-11-13T04:50:16.588Z,59.40
2018-11-13T04:52:46.367Z,59.20
2018-11-13T04:55:15.893Z,59.20
2018-11-13T04:57:44.746Z,59.20
2018-11-13T05:00:14.641Z,59.10
2018-11-13T05:02:44.659Z,59.80
2018-11-13T05:05:15.155Z,59.20
2018-11-13T05:07:48.125Z,59.30
2018-11-13T05:10:15.974Z,59.30
2018-11-13T05:12:46.184Z,59.40
2018-11-13T05:15:15.629Z,59.30
2018-11-13T05:17:45.025Z,59.20
2018-11-13T05:20:14.779Z,59.20
2018-11-13T05:22:44.764Z,59.30
2018-11-13T05:25:15.075Z,59.30
2018-11-13T05:27:44.591Z,59.40
2018-11-13T05:30:14.830Z,59.50
2018-11-13T05:32:43.984Z,60.20
2018-11-13T05:35:15.270Z,59.70
2018-11-13T05:37:44.749Z,59.60
2018-11-13T05:40:14.938Z,59.50
2018-11-13T05:42:44.480Z,60.00
2018-11-13T05:45:14.936Z,60.10
2018-11-13T05:47:42.777Z,59.60
2018-11-13T05:50:11.437Z,59.60
2018-11-13T05:52:39.599Z,59.70
2018-11-13T05:55:07.757Z,59.70
2018-11-13T05:57:35.649Z,59.60
2018-11-13T06:00:03.592Z,59.70
2018-11-13T06:02:31.427Z,59.70
2018-11-13T06:04:59.322Z,59.80
2018-11-13T06:07:27.181Z,59.90
2018-11-13T06:09:55.030Z,59.90
2018-11-13T06:12:22.884Z,59.80
2018-11-13T06:14:50.713Z,59.90
2018-11-13T06:17:19.507Z,59.90
2018-11-13T06:19:47.345Z,59.60
2018-11-13T06:22:15.403Z,59.50
2018-11-13T06:24:43.236Z,59.40
2018-11-13T06:27:11.302Z,59.40
2018-11-13T06:29:39.322Z,59.20
2018-11-13T06:32:07.328Z,59.30
2018-11-13T06:34:35.135Z,59.20
2018-11-13T06:37:02.923Z,59.30
2018-11-13T06:39:30.733Z,59.30
2018-11-13T06:41:58.569Z,59.40
2018-11-13T06:44:26.389Z,59.40
2018-11-13T06:46:54.222Z,60.10
2018-11-13T06:49:22.063Z,59.50
2018-11-13T06:51:49.976Z,59.40
2018-11-13T06:54:23.494Z,60.10
2018-11-13T06:56:51.368Z,59.50
2018-11-13T06:59:19.206Z,59.50
2018-11-13T07:01:47.022Z,59.60
2018-11-13T07:04:15.960Z,59.60
2018-11-13T07:06:45.162Z,59.60
2018-11-13T07:09:13.884Z,59.60
2018-11-13T07:11:41.714Z,59.60
2018-11-13T07:14:09.552Z,59.60
2018-11-13T07:16:38.374Z,59.60
2018-11-13T07:19:06.203Z,59.80
2018-11-13T07:21:34.075Z,59.80
2018-11-13T07:24:01.904Z,59.60
2018-11-13T07:26:30.683Z,59.70
2018-11-13T07:28:59.906Z,59.80
2018-11-13T07:31:27.753Z,59.90
2018-11-13T07:33:55.601Z,59.90
2018-11-13T07:36:23.430Z,60.00
2018-11-13T07:38:51.287Z,60.00
2018-11-13T07:41:20.153Z,60.10
2018-11-13T07:43:48.006Z,60.00
2018-11-13T07:46:16.612Z,60.00
2018-11-13T07:48:45.150Z,60.10
2018-11-13T07:51:14.536Z,60.20
2018-11-13T07:53:43.990Z,60.10
2018-11-13T07:56:12.679Z,60.40
2018-11-13T07:58:41.389Z,60.50
2018-11-13T08:01:10.114Z,60.30
2018-11-13T08:03:40.074Z,60.10
2018-11-13T08:06:08.967Z,60.10
2018-11-13T08:08:37.742Z,60.30
2018-11-13T08:11:06.576Z,60.40
2018-11-13T08:13:35.687Z,60.40
2018-11-13T08:16:04.424Z,60.80
2018-11-13T08:18:33.254Z,60.60
2018-11-13T08:21:02.021Z,60.70
2018-11-13T08:23:30.857Z,60.80
2018-11-13T08:25:59.554Z,60.90
2018-11-13T08:28:28.268Z,61.50
2018-11-13T08:30:56.109Z,60.60
2018-11-13T08:33:23.935Z,60.50
2018-11-13T08:35:52.692Z,60.50
2018-11-13T08:38:20.519Z,60.50
2018-11-13T08:40:49.339Z,60.30
2018-11-13T08:43:18.057Z,60.30
2018-11-13T08:45:46.792Z,60.40
2018-11-13T08:48:15.366Z,60.50
2018-11-13T08:50:44.137Z,60.70
2018-11-13T08:53:13.448Z,60.70
2018-11-13T08:55:41.282Z,60.70
2018-11-13T08:58:09.079Z,60.80
2018-11-13T09:00:37.809Z,61.00
2018-11-13T09:03:06.518Z,60.90
2018-11-13T09:05:34.343Z,61.00
2018-11-13T09:08:02.161Z,61.10
2018-11-13T09:10:29.987Z,61.20
2018-11-13T09:12:57.789Z,61.20
2018-11-13T09:15:25.619Z,61.10
2018-11-13T09:17:53.486Z,61.30
2018-11-13T09:20:21.505Z,61.30
2018-11-13T09:22:49.395Z,61.20
2018-11-13T09:25:19.489Z,61.30
2018-11-13T09:27:48.266Z,61.40
2018-11-13T09:30:19.705Z,61.40
2018-11-13T09:32:47.651Z,61.30
2018-11-13T09:35:17.360Z,61.30
2018-11-13T09:37:47.133Z,61.40
2018-11-13T09:40:17.674Z,61.50
2018-11-13T09:42:47.429Z,61.50
2018-11-13T09:45:17.441Z,61.50
2018-11-13T09:47:46.154Z,61.50
2018-11-13T09:50:16.800Z,61.50
2018-11-13T09:52:46.843Z,61.30
2018-11-13T09:55:16.912Z,61.60
2018-11-13T09:57:45.751Z,61.70
2018-11-13T10:00:15.525Z,61.50
2018-11-13T10:02:48.301Z,61.80
2018-11-13T10:05:17.652Z,61.80
2018-11-13T10:07:46.732Z,61.70
2018-11-13T10:10:15.598Z,61.70
2018-11-13T10:12:45.026Z,61.80
2018-11-13T10:15:16.125Z,61.70
2018-11-13T10:17:44.605Z,61.90
2018-11-13T10:20:15.017Z,61.90
2018-11-13T10:22:44.982Z,61.90
2018-11-13T10:25:13.948Z,61.90
2018-11-13T10:27:44.237Z,61.90
2018-11-13T10:30:16.753Z,61.70
2018-11-13T10:32:46.113Z,61.90
2018-11-13T10:35:15.000Z,61.90
2018-11-13T10:37:44.910Z,61.90
2018-11-13T10:40:15.017Z,61.80
2018-11-13T10:42:44.784Z,61.80
2018-11-13T10:45:20.057Z,61.90
2018-11-13T10:47:47.890Z,62.00
2018-11-13T10:50:17.989Z,62.00
2018-11-13T10:52:46.843Z,62.00
2018-11-13T10:55:15.701Z,61.80
2018-11-13T10:57:44.986Z,62.70
2018-11-13T11:00:18.596Z,61.90
2018-11-13T11:02:51.908Z,62.20
2018-11-13T11:05:20.638Z,62.20
2018-11-13T11:07:50.220Z,62.30
2018-11-13T11:10:18.046Z,62.10
2018-11-13T11:12:46.911Z,62.00
2018-11-13T11:15:15.233Z,62.00
2018-11-13T11:17:43.542Z,61.90
2018-11-13T11:20:12.445Z,62.30
2018-11-13T11:22:40.271Z,61.70
2018-11-13T11:25:08.983Z,61.70
2018-11-13T11:27:36.776Z,61.80
2018-11-13T11:30:04.542Z,61.70
2018-11-13T11:32:32.368Z,61.70
2018-11-13T11:35:00.186Z,61.70
2018-11-13T11:37:28.027Z,61.70
2018-11-13T11:39:55.797Z,61.70
2018-11-13T11:42:23.607Z,61.70
2018-11-13T11:44:51.408Z,61.70
2018-11-13T11:47:19.202Z,61.70
2018-11-13T11:49:47.030Z,61.70
2018-11-13T11:52:15.192Z,61.70
2018-11-13T11:54:43.464Z,61.90
2018-11-13T11:57:11.312Z,61.90
2018-11-13T11:59:39.172Z,61.90
2018-11-13T12:02:07.061Z,61.80
2018-11-13T12:04:34.865Z,61.90
2018-11-13T12:07:02.679Z,61.90
2018-11-13T12:09:30.488Z,62.00
2018-11-13T12:11:58.307Z,62.00
2018-11-13T12:14:26.141Z,62.20
2018-11-13T12:16:53.952Z,62.20
2018-11-13T12:19:21.883Z,62.00
2018-11-13T12:21:49.661Z,62.00
2018-11-13T12:24:17.513Z,62.00
2018-11-13T12:26:46.163Z,61.90
2018-11-13T12:29:14.413Z,62.10
2018-11-13T12:31:42.276Z,62.30
2018-11-13T12:34:10.105Z,62.20
2018-11-13T12:36:37.936Z,62.10
2018-11-13T12:39:06.955Z,62.40
2018-11-13T12:41:34.773Z,62.40
2018-11-13T12:44:02.599Z,62.30
2018-11-13T12:46:30.490Z,62.30
2018-11-13T12:48:58.391Z,62.30
2018-11-13T12:51:31.483Z,62.30
2018-11-13T12:53:59.309Z,62.30
2018-11-13T12:56:27.229Z,62.30
2018-11-13T12:58:55.072Z,62.60
2018-11-13T13:01:22.898Z,62.70
2018-11-13T13:03:50.739Z,62.70
2018-11-13T13:06:18.624Z,62.70
2018-11-13T13:08:46.533Z,62.50
2018-11-13T13:11:15.020Z,62.40
2018-11-13T13:13:44.746Z,62.30
2018-11-13T13:16:14.859Z,62.40
2018-11-13T13:18:42.787Z,62.70
2018-11-13T13:21:10.803Z,62.90
2018-11-13T13:23:38.685Z,62.80
2018-11-13T13:26:06.498Z,62.70
2018-11-13T13:28:35.599Z,62.70
2018-11-13T13:31:03.431Z,62.70
2018-11-13T13:33:31.291Z,62.70
2018-11-13T13:36:02.965Z,63.50
2018-11-13T13:38:31.881Z,62.90
2018-11-13T13:41:00.960Z,62.90
2018-11-13T13:43:29.695Z,62.90
2018-11-13T13:45:57.606Z,62.90
2018-11-13T13:48:25.528Z,63.00
2018-11-13T13:50:53.405Z,62.90
2018-11-13T13:53:21.904Z,62.90
2018-11-13T13:55:50.054Z,63.00
2018-11-13T13:58:18.419Z,63.20
2018-11-13T14:00:46.383Z,63.20
2018-11-13T14:03:14.913Z,63.00
2018-11-13T14:05:43.638Z,63.30
2018-11-13T14:08:12.370Z,63.10
2018-11-13T14:10:40.259Z,63.10
2018-11-13T14:13:08.085Z,63.00
2018-11-13T14:15:36.026Z,62.80
2018-11-13T14:18:03.840Z,62.70
2018-11-13T14:20:31.732Z,62.60
2018-11-13T14:22:59.559Z,62.80
2018-11-13T14:25:27.378Z,62.90
2018-11-13T14:27:55.200Z,62.80
2018-11-13T14:30:26.287Z,62.90
2018-11-13T14:32:55.206Z,62.90
2018-11-13T14:35:23.052Z,62.80
2018-11-13T14:37:51.037Z,62.70
2018-11-13T14:40:21.951Z,62.70
2018-11-13T14:42:50.019Z,62.80
2018-11-13T14:45:18.561Z,62.90
2018-11-13T14:47:47.093Z,63.00
2018-11-13T14:50:15.911Z,63.00
2018-11-13T14:52:44.334Z,62.90
2018-11-13T14:55:15.191Z,62.90
2018-11-13T14:57:43.315Z,62.90
2018-11-13T15:00:14.887Z,63.00
2018-11-13T15:02:43.253Z,63.00
2018-11-13T15:05:12.511Z,63.00
2018-11-13T15:07:40.544Z,63.10
2018-11-13T15:10:09.730Z,63.20
2018-11-13T15:12:37.594Z,63.10
2018-11-13T15:15:05.501Z,63.10
2018-11-13T15:17:33.343Z,63.20
2018-11-13T15:20:01.185Z,63.90
2018-11-13T15:22:29.164Z,63.60
2018-11-13T15:24:57.676Z,64.00
2018-11-13T15:27:26.132Z,63.30
2018-11-13T15:29:54.347Z,63.30
2018-11-13T15:32:22.195Z,63.30
2018-11-13T15:34:50.090Z,63.40
2018-11-13T15:37:18.967Z,63.40
2018-11-13T15:39:46.797Z,63.50
2018-11-13T15:42:15.514Z,63.50
2018-11-13T15:44:44.452Z,63.50
2018-11-13T15:47:12.242Z,63.50
2018-11-13T15:49:40.072Z,63.40
2018-11-13T15:52:08.005Z,63.40
2018-11-13T15:54:35.807Z,63.40
2018-11-13T15:57:03.642Z,63.50
2018-11-13T15:59:31.768Z,63.50
2018-11-13T16:01:59.595Z,63.40
2018-11-13T16:04:27.409Z,63.30
2018-11-13T16:06:55.247Z,63.30
2018-11-13T16:09:23.197Z,63.10
2018-11-13T16:11:51.046Z,63.20
2018-11-13T16:14:18.879Z,63.40
2018-11-13T16:16:46.731Z,63.30
2018-11-13T16:19:14.947Z,63.30
2018-11-13T16:21:42.848Z,63.30
2018-11-13T16:24:11.432Z,63.40
2018-11-13T16:26:39.373Z,63.40
2018-11-13T16:29:07.239Z,63.30
2018-11-13T16:31:35.128Z,63.20
2018-11-13T16:34:02.946Z,63.30
2018-11-13T16:36:30.857Z,63.10
2018-11-13T16:38:58.661Z,63.10
2018-11-13T16:41:26.543Z,63.10
2018-11-13T16:43:54.407Z,63.10
2018-11-13T16:46:22.245Z,63.20
2018-11-13T16:48:50.078Z,63.10
2018-11-13T16:51:18.812Z,62.80
2018-11-13T16:53:52.021Z,62.80
2018-11-13T16:56:19.956Z,62.80
2018-11-13T16:58:48.677Z,62.60
2018-11-13T17:01:17.404Z,62.50
2018-11-13T17:03:45.601Z,62.40
2018-11-13T17:06:14.213Z,62.40
2018-11-13T17:08:42.032Z,62.40
2018-11-13T17:11:09.928Z,62.50
2018-11-13T17:13:37.726Z,62.40
2018-11-13T17:16:06.493Z,62.40
2018-11-13T17:18:35.189Z,62.50
2018-11-13T17:21:03.886Z,62.20
2018-11-13T17:23:32.603Z,62.50
2018-11-13T17:26:00.488Z,62.50
2018-11-13T17:28:28.364Z,62.70
2018-11-13T17:30:56.332Z,62.80
2018-11-13T17:33:25.280Z,62.80
2018-11-13T17:35:53.138Z,62.90
2018-11-13T17:38:22.392Z,63.00
2018-11-13T17:40:51.173Z,63.10
2018-11-13T17:43:18.999Z,63.00
2018-11-13T17:45:46.832Z,63.00
2018-11-13T17:48:15.670Z,63.00
2018-11-13T17:50:44.596Z,62.90
2018-11-13T17:53:15.402Z,63.30
2018-11-13T17:55:45.064Z,62.90
2018-11-13T17:58:14.394Z,62.80
2018-11-13T18:00:44.438Z,62.50
2018-11-13T18:03:13.503Z,62.50
2018-11-13T18:05:41.568Z,62.50
2018-11-13T18:08:10.159Z,62.40
2018-11-13T18:10:39.250Z,62.30
2018-11-13T18:13:07.262Z,62.20
2018-11-13T18:15:35.052Z,62.10
2018-11-13T18:18:03.124Z,62.20
2018-11-13T18:20:32.402Z,62.10
2018-11-13T18:23:00.223Z,62.10
2018-11-13T18:25:29.273Z,62.00
2018-11-13T18:27:58.171Z,62.10
2018-11-13T18:30:28.413Z,62.10
2018-11-13T18:32:56.779Z,62.00
2018-11-13T18:35:30.709Z,61.90
2018-11-13T18:37:59.397Z,61.50
2018-11-13T18:40:28.427Z,61.90
2018-11-13T18:42:57.797Z,61.90
2018-11-13T18:45:28.338Z,61.90
2018-11-13T18:47:56.163Z,61.90
2018-11-13T18:50:31.479Z,61.90
2018-11-13T18:52:59.416Z,61.90
2018-11-13T18:55:27.253Z,61.90
2018-11-13T18:57:55.115Z,62.10
2018-11-13T19:00:26.268Z,61.70
2018-11-13T19:02:55.182Z,61.60
2018-11-13T19:05:23.647Z,61.40
2018-11-13T19:07:52.426Z,61.30
2018-11-13T19:10:25.303Z,61.40
2018-11-13T19:12:54.453Z,61.40
2018-11-13T19:15:22.315Z,61.40
2018-11-13T19:17:51.093Z,61.30
2018-11-13T19:20:20.080Z,61.50
2018-11-13T19:22:49.408Z,61.50
2018-11-13T19:25:35.204Z,61.50
2018-11-13T19:28:03.986Z,61.40
2018-11-13T19:30:33.531Z,61.40
2018-11-13T19:33:37.301Z,61.50
2018-11-13T19:36:39.431Z,61.50
2018-11-13T19:39:09.818Z,61.50
2018-11-13T19:41:37.656Z,61.80
2018-11-13T19:44:05.502Z,61.60
2018-11-13T19:46:34.348Z,61.60
2018-11-13T19:49:03.260Z,61.40
2018-11-13T19:51:31.122Z,61.00
2018-11-13T19:53:59.021Z,62.30
2018-11-13T19:56:26.834Z,61.50
2018-11-13T19:58:54.662Z,61.50
2018-11-13T20:01:22.487Z,61.60
2018-11-13T20:03:51.436Z,61.60
2018-11-13T20:06:19.276Z,61.60
2018-11-13T20:08:48.134Z,61.70
2018-11-13T20:11:16.963Z,61.40
2018-11-13T20:13:45.432Z,61.50
2018-11-13T20:16:14.366Z,61.50
2018-11-13T20:18:43.177Z,62.20
2018-11-13T20:21:11.006Z,61.40
2018-11-13T20:23:40.447Z,61.70
2018-11-13T20:26:14.512Z,61.60
2018-11-13T20:28:47.204Z,61.50
2018-11-13T20:31:25.962Z,61.60
2018-11-13T20:33:56.062Z,61.50
2018-11-13T20:36:28.253Z,61.50
2018-11-13T20:39:27.169Z,61.40
2018-11-13T20:41:59.772Z,61.50
2018-11-13T20:44:33.476Z,61.40
2018-11-13T20:47:01.344Z,61.40
2018-11-13T20:49:30.176Z,61.40
2018-11-13T20:51:58.038Z,61.40
2018-11-13T20:54:26.916Z,61.20
2018-11-13T20:56:54.738Z,60.80
2018-11-13T20:59:22.571Z,60.90
2018-11-13T21:01:55.993Z,61.00
2018-11-13T21:04:24.945Z,61.10
2018-11-13T21:06:53.887Z,61.10
2018-11-13T21:09:21.716Z,61.00
2018-11-13T21:11:50.604Z,61.10
2018-11-13T21:14:18.481Z,61.20
2018-11-13T21:16:46.408Z,61.10
2018-11-13T21:19:15.591Z,61.00
2018-11-13T21:21:44.414Z,61.20
2018-11-13T21:24:12.263Z,61.00
2018-11-13T21:26:41.052Z,61.00
2018-11-13T21:29:09.749Z,61.10
2018-11-13T21:31:37.575Z,61.20
2018-11-13T21:34:05.633Z,61.00
2018-11-13T21:36:33.479Z,61.30
2018-11-13T21:39:02.453Z,61.10
2018-11-13T21:41:30.302Z,61.10
2018-11-13T21:43:58.131Z,61.00
2018-11-13T21:46:26.018Z,61.10
2018-11-13T21:48:54.832Z,61.10
2018-11-13T21:51:22.725Z,61.00
2018-11-13T21:53:51.502Z,60.60
2018-11-13T21:56:19.336Z,61.80
2018-11-13T21:58:47.393Z,60.80
2018-11-13T22:01:15.645Z,60.80
2018-11-13T22:03:44.715Z,60.60
2018-11-13T22:06:12.568Z,60.60
2018-11-13T22:08:41.400Z,60.50
2018-11-13T22:11:09.487Z,60.50
2018-11-13T22:13:37.095Z,60.50
2018-11-13T22:16:05.802Z,60.50
2018-11-13T22:18:34.535Z,60.60
2018-11-13T22:21:02.442Z,60.50
2018-11-13T22:23:30.373Z,60.40
2018-11-13T22:25:58.212Z,60.50
2018-11-13T22:28:26.289Z,60.70
2018-11-13T22:30:54.042Z,60.50
2018-11-13T22:33:22.891Z,60.50
2018-11-13T22:35:50.715Z,60.50
2018-11-13T22:38:18.539Z,60.50
2018-11-13T22:40:46.384Z,60.60
2018-11-13T22:43:14.970Z,60.50
2018-11-13T22:45:42.764Z,60.30
2018-11-13T22:48:11.625Z,60.30
2018-11-13T22:50:39.457Z,60.40
2018-11-13T22:53:07.321Z,60.40
2018-11-13T22:55:35.143Z,60.50
2018-11-13T22:58:03.880Z,60.40
2018-11-13T23:00:40.734Z,60.70
2018-11-13T23:03:10.597Z,60.80
2018-11-13T23:05:40.033Z,60.20
2018-11-13T23:08:08.607Z,60.70
2018-11-13T23:10:36.448Z,60.60
2018-11-13T23:13:04.688Z,60.60
2018-11-13T23:15:33.091Z,60.50
2018-11-13T23:18:01.819Z,60.70
2018-11-13T23:20:30.559Z,60.80
2018-11-13T23:22:58.401Z,60.80
2018-11-13T23:25:27.278Z,60.80
2018-11-13T23:27:56.181Z,60.70
2018-11-13T23:30:25.280Z,60.70
2018-11-13T23:32:54.882Z,60.60
2018-11-13T23:35:22.703Z,60.60
2018-11-13T23:37:58.710Z,60.80
2018-11-13T23:40:28.267Z,60.70
2018-11-13T23:42:59.218Z,60.50
2018-11-13T23:45:28.543Z,60.60
2018-11-13T23:47:58.765Z,60.40
2018-11-13T23:50:37.870Z,60.70
2018-11-13T23:53:07.476Z,60.60
2018-11-13T23:55:40.030Z,60.30
2018-11-13T23:58:12.556Z,60.70
